createdAt,value
2017-04-21T00:00:26.520Z,19.45
2017-04-21T00:01:26.526Z,19.54
2017-04-21T00:02:26.528Z,19.54
2017-04-21T00:03:26.539Z,19.54
2017-04-21T00:04:26.595Z,19.54
2017-04-21T00:05:26.600Z,19.54
2017-04-21T00:06:26.242Z,19.93
2017-04-21T00:07:26.561Z,19.64
2017-04-21T00:08:26.566Z,19.54
2017-04-21T00:09:26.774Z,19.83
2017-04-21T00:10:26.264Z,19.73
2017-04-21T00:11:26.601Z,19.73
2017-04-21T00:12:26.277Z,19.83
2017-04-21T00:13:28.095Z,19.73
2017-04-21T00:14:26.287Z,19.54
2017-04-21T00:15:26.654Z,19.45
2017-04-21T00:16:26.661Z,19.73
2017-04-21T00:17:26.616Z,19.83
2017-04-21T00:18:26.626Z,20.12
2017-04-21T00:19:26.627Z,19.73
2017-04-21T00:20:26.320Z,19.73
2017-04-21T00:21:26.642Z,19.54
2017-04-21T00:22:26.650Z,19.93
2017-04-21T00:23:26.702Z,19.54
2017-04-21T00:24:26.670Z,19.54
2017-04-21T00:25:26.351Z,19.93
2017-04-21T00:26:26.356Z,19.93
2017-04-21T00:27:26.774Z,19.45
2017-04-21T00:28:26.731Z,19.45
2017-04-21T00:29:26.687Z,19.73
2017-04-21T00:30:26.690Z,19.54
2017-04-21T00:31:26.748Z,19.73
2017-04-21T00:32:26.702Z,19.64
2017-04-21T00:33:26.793Z,20.02
2017-04-21T00:34:26.717Z,20.12
2017-04-21T00:35:26.721Z,19.73
2017-04-21T00:36:26.727Z,19.73
2017-04-21T00:37:26.418Z,19.83
2017-04-21T00:38:26.739Z,19.63
2017-04-21T00:39:26.430Z,19.93
2017-04-21T00:40:26.749Z,20.31
2017-04-21T00:41:26.498Z,19.83
2017-04-21T00:42:26.812Z,19.73
2017-04-21T00:43:26.766Z,19.54
2017-04-21T00:44:26.773Z,19.64
2017-04-21T00:45:26.827Z,19.45
2017-04-21T00:46:26.780Z,19.54
2017-04-21T00:47:26.474Z,20.02
2017-04-21T00:48:26.845Z,19.83
2017-04-21T00:49:26.903Z,19.53
2017-04-21T00:50:26.613Z,19.64
2017-04-21T00:51:26.866Z,19.45
2017-04-21T00:52:26.820Z,18.87
2017-04-21T00:53:26.822Z,18.96
2017-04-21T00:54:26.829Z,18.96
2017-04-21T00:55:26.833Z,18.96
2017-04-21T00:56:26.529Z,19.15
2017-04-21T00:57:26.896Z,19.06
2017-04-21T00:58:26.852Z,19.25
2017-04-21T00:59:26.853Z,18.96
2017-04-21T01:00:26.598Z,19.15
2017-04-21T01:01:26.869Z,19.25
2017-04-21T01:02:26.923Z,19.15
2017-04-21T01:03:26.936Z,19.35
2017-04-21T01:04:26.934Z,19.06
2017-04-21T01:05:26.576Z,19.25
2017-04-21T01:06:26.896Z,19.15
2017-04-21T01:07:28.603Z,19.24
2017-04-21T01:08:26.911Z,19.24
2017-04-21T01:09:26.916Z,18.95
2017-04-21T01:10:26.971Z,18.68
2017-04-21T01:11:26.923Z,19.25
2017-04-21T01:12:26.947Z,18.87
2017-04-21T01:13:26.934Z,18.68
2017-04-21T01:14:26.630Z,18.77
2017-04-21T01:15:26.633Z,19.25
2017-04-21T01:16:26.951Z,18.48
2017-04-21T01:17:26.648Z,18.86
2017-04-21T01:18:26.702Z,18.76
2017-04-21T01:19:26.968Z,18.57
2017-04-21T01:20:27.024Z,18.86
2017-04-21T01:21:26.981Z,18.57
2017-04-21T01:22:26.985Z,18.66
2017-04-21T01:23:26.992Z,18.77
2017-04-21T01:24:26.685Z,18.66
2017-04-21T01:25:27.002Z,18.77
2017-04-21T01:26:27.008Z,18.66
2017-04-21T01:27:27.066Z,18.95
2017-04-21T01:28:27.019Z,18.76
2017-04-21T01:29:27.024Z,18.57
2017-04-21T01:30:27.081Z,18.66
2017-04-21T01:31:27.035Z,18.57
2017-04-21T01:32:27.040Z,18.66
2017-04-21T01:33:27.046Z,18.48
2017-04-21T01:34:27.053Z,18.66
2017-04-21T01:35:26.746Z,18.95
2017-04-21T01:36:26.750Z,19.05
2017-04-21T01:37:27.068Z,18.86
2017-04-21T01:38:27.076Z,18.57
2017-04-21T01:39:27.134Z,18.48
2017-04-21T01:40:27.086Z,18.76
2017-04-21T01:41:27.092Z,18.57
2017-04-21T01:42:27.147Z,18.57
2017-04-21T01:43:27.150Z,18.66
2017-04-21T01:44:27.108Z,18.95
2017-04-21T01:45:27.111Z,18.76
2017-04-21T01:46:26.855Z,18.76
2017-04-21T01:47:27.124Z,18.76
2017-04-21T01:48:27.129Z,18.76
2017-04-21T01:49:27.132Z,18.66
2017-04-21T01:50:27.203Z,18.66
2017-04-21T01:51:27.145Z,18.76
2017-04-21T01:52:27.201Z,18.76
2017-04-21T01:53:26.847Z,18.57
2017-04-21T01:54:26.849Z,18.48
2017-04-21T01:55:27.167Z,18.48
2017-04-21T01:56:27.172Z,18.86
2017-04-21T01:57:27.192Z,18.57
2017-04-21T01:58:27.186Z,18.86
2017-04-21T01:59:26.927Z,18.57
2017-04-21T02:00:26.883Z,18.76
2017-04-21T02:01:27.197Z,18.76
2017-04-21T02:02:27.204Z,18.38
2017-04-21T02:03:26.896Z,18.57
2017-04-21T02:04:27.216Z,18.57
2017-04-21T02:05:26.908Z,18.66
2017-04-21T02:06:26.968Z,18.66
2017-04-21T02:07:26.918Z,18.76
2017-04-21T02:08:26.929Z,18.57
2017-04-21T02:09:27.246Z,18.76
2017-04-21T02:10:27.248Z,18.66
2017-04-21T02:11:27.306Z,18.86
2017-04-21T02:12:26.948Z,18.66
2017-04-21T02:13:27.266Z,18.76
2017-04-21T02:14:26.958Z,18.76
2017-04-21T02:15:26.964Z,18.76
2017-04-21T02:16:27.284Z,18.76
2017-04-21T02:17:27.290Z,18.57
2017-04-21T02:18:27.292Z,18.76
2017-04-21T02:19:27.297Z,18.76
2017-04-21T02:20:27.304Z,18.86
2017-04-21T02:21:27.309Z,18.86
2017-04-21T02:22:27.003Z,18.66
2017-04-21T02:23:27.395Z,18.66
2017-04-21T02:24:27.374Z,18.76
2017-04-21T02:25:27.069Z,18.76
2017-04-21T02:26:27.336Z,18.57
2017-04-21T02:27:27.342Z,18.76
2017-04-21T02:28:27.346Z,18.66
2017-04-21T02:29:27.350Z,18.76
2017-04-21T02:30:27.358Z,18.76
2017-04-21T02:31:27.365Z,18.57
2017-04-21T02:32:27.381Z,18.57
2017-04-21T02:33:27.374Z,18.86
2017-04-21T02:34:27.680Z,18.86
2017-04-21T02:35:27.384Z,18.76
2017-04-21T02:36:27.393Z,18.76
2017-04-21T02:37:27.445Z,18.66
2017-04-21T02:38:27.138Z,18.76
2017-04-21T02:39:27.094Z,18.66
2017-04-21T02:40:27.100Z,18.95
2017-04-21T02:41:27.419Z,19.15
2017-04-21T02:42:27.476Z,19.05
2017-04-21T02:43:27.428Z,18.66
2017-04-21T02:44:27.431Z,19.15
2017-04-21T02:45:27.126Z,19.05
2017-04-21T02:46:27.446Z,18.95
2017-04-21T02:47:27.450Z,18.86
2017-04-21T02:48:27.454Z,18.95
2017-04-21T02:49:27.462Z,18.95
2017-04-21T02:50:27.470Z,18.76
2017-04-21T02:51:27.473Z,18.95
2017-04-21T02:52:27.267Z,18.66
2017-04-21T02:53:27.532Z,18.57
2017-04-21T02:54:27.546Z,18.66
2017-04-21T02:55:27.493Z,18.66
2017-04-21T02:56:27.702Z,18.76
2017-04-21T02:57:27.192Z,18.76
2017-04-21T02:58:27.562Z,18.57
2017-04-21T02:59:27.518Z,18.66
2017-04-21T03:00:27.571Z,18.86
2017-04-21T03:01:27.574Z,18.76
2017-04-21T03:02:27.533Z,18.66
2017-04-21T03:03:27.885Z,18.76
2017-04-21T03:04:27.542Z,18.66
2017-04-21T03:05:27.245Z,18.57
2017-04-21T03:06:27.602Z,18.76
2017-04-21T03:07:27.558Z,18.66
2017-04-21T03:08:27.564Z,18.76
2017-04-21T03:09:27.307Z,18.76
2017-04-21T03:10:27.575Z,18.76
2017-04-21T03:11:27.579Z,18.57
2017-04-21T03:12:27.270Z,18.66
2017-04-21T03:13:27.641Z,18.66
2017-04-21T03:14:27.282Z,18.76
2017-04-21T03:15:27.600Z,18.76
2017-04-21T03:16:27.607Z,18.57
2017-04-21T03:17:27.348Z,18.66
2017-04-21T03:18:27.618Z,18.76
2017-04-21T03:19:27.621Z,18.66
2017-04-21T03:20:27.626Z,18.66
2017-04-21T03:21:27.321Z,18.76
2017-04-21T03:22:27.712Z,18.86
2017-04-21T03:23:27.691Z,18.76
2017-04-21T03:24:27.384Z,18.86
2017-04-21T03:25:27.702Z,18.57
2017-04-21T03:26:27.713Z,18.76
2017-04-21T03:27:27.764Z,18.66
2017-04-21T03:28:27.669Z,18.66
2017-04-21T03:29:27.678Z,18.66
2017-04-21T03:30:27.680Z,18.76
2017-04-21T03:31:27.687Z,18.76
2017-04-21T03:32:27.690Z,18.76
2017-04-21T03:33:27.693Z,18.66
2017-04-21T03:34:27.391Z,18.86
2017-04-21T03:35:27.760Z,18.66
2017-04-21T03:36:27.714Z,18.76
2017-04-21T03:37:27.717Z,18.66
2017-04-21T03:38:27.720Z,18.76
2017-04-21T03:39:27.991Z,18.57
2017-04-21T03:40:27.471Z,18.57
2017-04-21T03:41:27.741Z,19.34
2017-04-21T03:42:27.744Z,19.15
2017-04-21T03:43:27.751Z,19.24
2017-04-21T03:44:27.757Z,19.34
2017-04-21T03:45:27.811Z,19.15
2017-04-21T03:46:27.766Z,19.43
2017-04-21T03:47:27.461Z,18.85
2017-04-21T03:48:27.829Z,19.23
2017-04-21T03:49:27.469Z,18.95
2017-04-21T03:50:27.886Z,19.33
2017-04-21T03:51:27.799Z,18.95
2017-04-21T03:52:27.799Z,18.95
2017-04-21T03:53:27.807Z,19.05
2017-04-21T03:54:27.837Z,18.95
2017-04-21T03:55:27.815Z,19.04
2017-04-21T03:56:27.822Z,19.04
2017-04-21T03:57:27.827Z,19.24
2017-04-21T03:58:27.573Z,18.95
2017-04-21T03:59:27.837Z,19.15
2017-04-21T04:00:27.843Z,19.13
2017-04-21T04:01:27.897Z,19.24
2017-04-21T04:02:27.539Z,18.86
2017-04-21T04:03:27.862Z,18.66
2017-04-21T04:04:27.865Z,18.48
2017-04-21T04:05:27.555Z,18.86
2017-04-21T04:06:27.872Z,18.95
2017-04-21T04:07:27.877Z,19.24
2017-04-21T04:08:27.885Z,19.05
2017-04-21T04:09:27.892Z,19.24
2017-04-21T04:10:27.632Z,19.24
2017-04-21T04:11:27.636Z,19.15
2017-04-21T04:12:27.955Z,19.24
2017-04-21T04:13:27.971Z,18.86
2017-04-21T04:14:27.964Z,19.24
2017-04-21T04:15:27.921Z,19.34
2017-04-21T04:16:27.614Z,19.24
2017-04-21T04:17:27.616Z,19.05
2017-04-21T04:18:27.937Z,19.24
2017-04-21T04:19:27.993Z,18.86
2017-04-21T04:20:27.997Z,18.86
2017-04-21T04:21:27.950Z,18.95
2017-04-21T04:22:28.010Z,19.05
2017-04-21T04:23:27.966Z,18.95
2017-04-21T04:24:27.968Z,18.95
2017-04-21T04:25:27.973Z,19.15
2017-04-21T04:26:27.977Z,18.95
2017-04-21T04:27:27.985Z,18.95
2017-04-21T04:28:27.987Z,18.95
2017-04-21T04:29:27.682Z,18.95
2017-04-21T04:30:27.998Z,18.95
2017-04-21T04:31:28.055Z,18.95
2017-04-21T04:32:28.009Z,18.95
2017-04-21T04:33:28.014Z,18.86
2017-04-21T04:34:28.019Z,19.53
2017-04-21T04:35:28.024Z,19.53
2017-04-21T04:36:28.081Z,19.63
2017-04-21T04:37:28.034Z,19.63
2017-04-21T04:38:28.040Z,19.53
2017-04-21T04:39:28.045Z,19.53
2017-04-21T04:40:28.051Z,19.53
2017-04-21T04:41:28.055Z,19.52
2017-04-21T04:42:28.061Z,19.72
2017-04-21T04:43:27.806Z,19.63
2017-04-21T04:44:28.122Z,19.43
2017-04-21T04:45:28.079Z,19.63
2017-04-21T04:46:28.136Z,19.82
2017-04-21T04:47:28.616Z,19.63
2017-04-21T04:48:27.783Z,19.43
2017-04-21T04:49:28.100Z,19.72
2017-04-21T04:50:28.793Z,19.72
2017-04-21T04:51:28.109Z,19.71
2017-04-21T04:52:27.803Z,19.71
2017-04-21T04:53:28.119Z,19.34
2017-04-21T04:54:28.123Z,20.29
2017-04-21T04:55:28.130Z,20.01
2017-04-21T04:56:28.139Z,20.1
2017-04-21T04:57:27.828Z,19.33
2017-04-21T04:58:28.197Z,19.92
2017-04-21T04:59:28.203Z,19.9
2017-04-21T05:00:28.156Z,20
2017-04-21T05:01:28.160Z,19.9
2017-04-21T05:02:27.855Z,19.72
2017-04-21T05:03:28.172Z,19.63
2017-04-21T05:04:28.259Z,19.33
2017-04-21T05:05:28.183Z,19.43
2017-04-21T05:06:27.877Z,19.82
2017-04-21T05:07:28.196Z,19.43
2017-04-21T05:08:28.250Z,20
2017-04-21T05:09:28.303Z,19.71
2017-04-21T05:10:28.261Z,19.62
2017-04-21T05:11:28.213Z,19.72
2017-04-21T05:12:28.221Z,19.34
2017-04-21T05:13:28.227Z,19.72
2017-04-21T05:14:28.232Z,19.72
2017-04-21T05:15:28.287Z,19.63
2017-04-21T05:16:28.290Z,19.63
2017-04-21T05:17:28.250Z,19.34
2017-04-21T05:18:28.252Z,19.33
2017-04-21T05:19:28.256Z,19.72
2017-04-21T05:20:28.265Z,19.71
2017-04-21T05:21:28.267Z,19.72
2017-04-21T05:22:28.275Z,19.92
2017-04-21T05:23:28.334Z,19.9
2017-04-21T05:24:27.971Z,19.9
2017-04-21T05:25:28.289Z,19.82
2017-04-21T05:26:28.346Z,19.71
2017-04-21T05:27:28.349Z,20
2017-04-21T05:28:28.305Z,19.71
2017-04-21T05:29:28.311Z,19.71
2017-04-21T05:30:28.314Z,19.9
2017-04-21T05:31:28.370Z,19.62
2017-04-21T05:32:28.326Z,20
2017-04-21T05:33:28.380Z,19.81
2017-04-21T05:34:28.352Z,19.92
2017-04-21T05:35:28.394Z,19.9
2017-04-21T05:36:28.348Z,19.72
2017-04-21T05:37:28.354Z,19.53
2017-04-21T05:38:28.286Z,19.72
2017-04-21T05:39:28.363Z,19.63
2017-04-21T05:40:28.054Z,19.81
2017-04-21T05:41:28.061Z,20.3
2017-04-21T05:42:28.063Z,19.63
2017-04-21T05:43:28.431Z,19.63
2017-04-21T05:44:28.387Z,19.81
2017-04-21T05:45:28.080Z,19.62
2017-04-21T05:46:28.396Z,19.9
2017-04-21T05:47:28.458Z,19.71
2017-04-21T05:48:28.409Z,19.9
2017-04-21T05:49:28.600Z,19.53
2017-04-21T05:50:28.416Z,19.92
2017-04-21T05:51:28.470Z,19.52
2017-04-21T05:52:28.428Z,19.92
2017-04-21T05:53:28.431Z,19.53
2017-04-21T05:54:28.485Z,19.63
2017-04-21T05:55:28.446Z,19.82
2017-04-21T05:56:28.496Z,19.62
2017-04-21T05:57:28.453Z,19.81
2017-04-21T05:58:28.460Z,19.81
2017-04-21T05:59:28.469Z,19.81
2017-04-21T06:00:28.467Z,20
2017-04-21T06:01:28.210Z,20
2017-04-21T06:02:28.270Z,19.81
2017-04-21T06:03:28.484Z,19.9
2017-04-21T06:04:28.489Z,19.81
2017-04-21T06:05:28.180Z,19.9
2017-04-21T06:06:28.526Z,19.9
2017-04-21T06:07:28.505Z,20.2
2017-04-21T06:08:28.558Z,19.81
2017-04-21T06:09:28.517Z,19.81
2017-04-21T06:10:28.571Z,19.81
2017-04-21T06:11:28.262Z,19.81
2017-04-21T06:12:28.579Z,19.63
2017-04-21T06:13:28.225Z,19.81
2017-04-21T06:14:28.595Z,19.81
2017-04-21T06:15:28.548Z,19.81
2017-04-21T06:16:28.241Z,19.9
2017-04-21T06:17:28.298Z,19.81
2017-04-21T06:18:28.564Z,20
2017-04-21T06:19:28.616Z,19.9
2017-04-21T06:20:28.574Z,19.9
2017-04-21T06:21:28.581Z,19.71
2017-04-21T06:22:28.582Z,20.01
2017-04-21T06:23:28.275Z,19.82
2017-04-21T06:24:28.594Z,19.82
2017-04-21T06:25:28.604Z,19.92
2017-04-21T06:26:28.603Z,20.01
2017-04-21T06:27:28.609Z,20.01
2017-04-21T06:28:28.914Z,19.92
2017-04-21T06:29:28.770Z,20.01
2017-04-21T06:30:28.632Z,19.92
2017-04-21T06:31:28.681Z,20.11
2017-04-21T06:32:28.638Z,19.72
2017-04-21T06:33:28.638Z,19.72
2017-04-21T06:34:28.336Z,19.82
2017-04-21T06:35:28.339Z,19.92
2017-04-21T06:36:28.655Z,19.92
2017-04-21T06:37:28.659Z,19.92
2017-04-21T06:38:28.665Z,19.72
2017-04-21T06:39:28.409Z,19.72
2017-04-21T06:40:28.724Z,19.82
2017-04-21T06:41:28.730Z,19.82
2017-04-21T06:42:28.686Z,20.11
2017-04-21T06:43:28.695Z,20.01
2017-04-21T06:44:28.694Z,20.11
2017-04-21T06:45:29.639Z,20.01
2017-04-21T06:46:28.713Z,19.63
2017-04-21T06:47:28.451Z,19.82
2017-04-21T06:48:28.719Z,19.92
2017-04-21T06:49:28.410Z,19.92
2017-04-21T06:50:28.727Z,19.82
2017-04-21T06:51:28.731Z,19.92
2017-04-21T06:52:28.423Z,20.01
2017-04-21T06:53:28.794Z,20.11
2017-04-21T06:54:28.745Z,20.11
2017-04-21T06:55:28.752Z,20.01
2017-04-21T06:56:28.755Z,20.11
2017-04-21T06:57:28.449Z,20.11
2017-04-21T06:58:28.457Z,20.01
2017-04-21T06:59:28.844Z,19.82
2017-04-21T07:00:28.834Z,19.82
2017-04-21T07:01:28.785Z,19.82
2017-04-21T07:02:28.789Z,20.01
2017-04-21T07:03:28.869Z,19.92
2017-04-21T07:04:28.482Z,20.01
2017-04-21T07:05:28.805Z,20.01
2017-04-21T07:06:28.821Z,20.01
2017-04-21T07:07:28.497Z,20.5
2017-04-21T07:08:28.819Z,20.3
2017-04-21T07:09:28.509Z,20.2
2017-04-21T07:10:28.831Z,20
2017-04-21T07:11:28.833Z,20.4
2017-04-21T07:12:28.839Z,20.29
2017-04-21T07:13:28.843Z,20.2
2017-04-21T07:14:28.850Z,20.11
2017-04-21T07:15:28.953Z,20.2
2017-04-21T07:16:28.548Z,20.2
2017-04-21T07:17:28.864Z,20.29
2017-04-21T07:18:28.870Z,20.29
2017-04-21T07:19:28.875Z,20.11
2017-04-21T07:20:28.568Z,20.3
2017-04-21T07:21:29.637Z,20.1
2017-04-21T07:22:28.891Z,20.01
2017-04-21T07:23:28.896Z,20.39
2017-04-21T07:24:28.588Z,20.2
2017-04-21T07:25:28.909Z,20.39
2017-04-21T07:26:28.599Z,20.3
2017-04-21T07:27:29.023Z,20.4
2017-04-21T07:28:28.921Z,20.5
2017-04-21T07:29:28.927Z,20.5
2017-04-21T07:30:28.936Z,20.4
2017-04-21T07:31:28.937Z,19.92
2017-04-21T07:32:28.942Z,20.01
2017-04-21T07:33:28.949Z,20.11
2017-04-21T07:34:29.006Z,19.92
2017-04-21T07:35:28.644Z,20.01
2017-04-21T07:36:28.649Z,20.01
2017-04-21T07:37:28.974Z,19.63
2017-04-21T07:38:29.022Z,20.01
2017-04-21T07:39:30.566Z,19.92
2017-04-21T07:41:28.993Z,19.82
2017-04-21T07:42:28.993Z,19.82
2017-04-21T07:43:28.999Z,20.01
2017-04-21T07:44:29.001Z,19.82
2017-04-21T07:45:28.695Z,19.92
2017-04-21T07:46:29.063Z,20.01
2017-04-21T07:47:28.755Z,20.01
2017-04-21T07:48:29.024Z,20.11
2017-04-21T07:49:29.028Z,19.82
2017-04-21T07:50:29.035Z,20.4
2017-04-21T07:51:29.041Z,19.82
2017-04-21T07:52:29.045Z,19.92
2017-04-21T07:53:29.046Z,19.92
2017-04-21T07:54:30.808Z,20.5
2017-04-21T07:55:29.108Z,20.4
2017-04-21T07:56:29.063Z,20.4
2017-04-21T07:57:29.078Z,20.5
2017-04-21T07:58:29.079Z,20.11
2017-04-21T07:59:29.080Z,19.92
2017-04-21T08:02:01.084Z,20.11
2017-04-21T08:03:01.086Z,19.93
2017-04-21T08:04:01.092Z,20.02
2017-04-21T08:05:01.097Z,19.83
2017-04-21T08:06:01.107Z,19.83
2017-04-21T08:07:01.158Z,20.02
2017-04-21T08:08:01.111Z,20.11
2017-04-21T08:10:00.812Z,20.12
2017-04-21T08:11:00.817Z,19.92
2017-04-21T08:12:01.132Z,20.12
2017-04-21T08:13:01.140Z,19.83
2017-04-21T08:14:01.146Z,19.83
2017-04-21T08:15:01.248Z,19.73
2017-04-21T08:16:01.154Z,20.02
2017-04-21T08:17:01.228Z,20.02
2017-04-21T08:18:01.163Z,20.12
2017-04-21T08:19:01.220Z,19.93
2017-04-21T08:20:00.861Z,20.5
2017-04-21T08:21:01.180Z,19.93
2017-04-21T08:22:01.184Z,20.02
2017-04-21T08:23:01.192Z,19.73
2017-04-21T08:24:01.246Z,20.12
2017-04-21T08:25:01.255Z,20.02
2017-04-21T08:26:01.209Z,19.93
2017-04-21T08:27:01.221Z,19.93
2017-04-21T08:28:01.224Z,19.83
2017-04-21T08:29:01.272Z,20.02
2017-04-21T08:30:01.278Z,20.02
2017-04-21T08:31:01.230Z,19.93
2017-04-21T08:32:01.240Z,19.83
2017-04-21T08:33:01.254Z,20.12
2017-04-21T08:34:01.250Z,19.93
2017-04-21T08:35:01.256Z,19.83
2017-04-21T08:36:01.311Z,19.93
2017-04-21T08:37:01.263Z,19.93
2017-04-21T08:38:01.268Z,19.83
2017-04-21T08:39:01.275Z,19.64
2017-04-21T08:40:01.281Z,19.64
2017-04-21T08:41:01.333Z,19.93
2017-04-21T08:42:01.291Z,19.93
2017-04-21T08:43:01.344Z,19.83
2017-04-21T08:44:01.299Z,19.73
2017-04-21T08:45:01.355Z,19.73
2017-04-21T08:46:01.363Z,20.21
2017-04-21T08:47:01.008Z,19.73
2017-04-21T08:48:01.325Z,19.25
2017-04-21T08:49:01.379Z,19.26
2017-04-21T08:50:01.403Z,20.12
2017-04-21T08:51:01.335Z,19.64
2017-04-21T08:52:01.343Z,19.64
2017-04-21T08:53:01.348Z,19.93
2017-04-21T08:54:01.454Z,19.64
2017-04-21T08:55:01.466Z,19.83
2017-04-21T08:56:01.414Z,19.74
2017-04-21T08:57:01.367Z,20.13
2017-04-21T08:58:01.628Z,19.45
2017-04-21T08:59:01.380Z,19.35
2017-04-21T09:00:01.385Z,20.12
2017-04-21T09:01:01.439Z,19.64
2017-04-21T09:02:01.083Z,19.65
2017-04-21T09:03:01.403Z,20.02
2017-04-21T09:04:01.468Z,20.03
2017-04-21T09:05:01.411Z,19.73
2017-04-21T09:06:01.423Z,19.83
2017-04-21T09:07:01.720Z,19.64
2017-04-21T09:08:01.163Z,19.93
2017-04-21T09:09:01.484Z,19.93
2017-04-21T09:10:01.738Z,19.84
2017-04-21T09:11:01.444Z,19.55
2017-04-21T09:12:01.443Z,19.45
2017-04-21T09:13:01.456Z,19.65
2017-04-21T09:14:01.517Z,20.13
2017-04-21T09:15:01.464Z,19.84
2017-04-21T09:16:01.517Z,20.03
2017-04-21T09:18:01.492Z,19.83
2017-04-21T09:19:01.486Z,19.83
2017-04-21T09:20:01.230Z,19.45
2017-04-21T09:21:01.233Z,19.36
2017-04-21T09:22:01.219Z,19.65
2017-04-21T09:23:01.629Z,19.84
2017-04-21T09:24:01.512Z,19.93
2017-04-21T09:25:01.515Z,19.46
2017-04-21T09:26:01.520Z,19.85
2017-04-21T09:27:01.263Z,19.27
2017-04-21T09:28:01.533Z,19.18
2017-04-21T09:29:01.539Z,18.79
2017-04-21T09:30:02.959Z,18.6
2017-04-21T09:31:06.372Z,18.22
2017-04-21T09:33:57.505Z,17.94
2017-04-21T09:36:13.844Z,17.84
2017-04-21T09:37:13.537Z,18.13
2017-04-21T09:38:13.858Z,18.04
2017-04-21T09:39:13.856Z,18.04
2017-04-21T09:40:13.923Z,18.13
2017-04-21T09:41:13.876Z,18.04
2017-04-21T09:42:37.241Z,18.52
2017-04-21T09:44:02.451Z,18.42
2017-04-21T09:45:02.458Z,18.51
2017-04-21T09:46:02.467Z,18.04
2017-04-21T09:47:02.518Z,18.52
2017-04-21T09:48:02.520Z,18.04
2017-04-21T09:49:02.169Z,17.94
2017-04-21T09:50:02.240Z,18.13
2017-04-21T09:51:02.492Z,18.04
2017-04-21T09:54:02.205Z,18.04
2017-04-21T10:04:11.517Z,18.8
2017-04-21T10:08:26.654Z,18.9
2017-04-21T10:09:26.609Z,19.38
2017-04-21T10:10:26.933Z,19.18
2017-04-21T10:11:26.941Z,18.99
2017-04-21T10:12:26.995Z,19.09
2017-04-21T10:13:26.948Z,18.99
2017-04-21T10:14:26.952Z,19.28
2017-04-21T10:15:26.962Z,19.09
2017-04-21T10:16:26.984Z,19.28
2017-04-21T10:17:26.972Z,18.6
2017-04-21T10:18:26.977Z,19
2017-04-21T10:19:26.984Z,18.62
2017-04-21T10:20:26.989Z,18.71
2017-04-21T10:21:26.995Z,18.32
2017-04-21T10:22:27.000Z,18.9
2017-04-21T10:23:27.014Z,18.8
2017-04-21T10:24:27.013Z,18.8
2017-04-21T10:25:26.756Z,18.9
2017-04-21T10:26:27.022Z,18.71
2017-04-21T10:27:26.768Z,18.8
2017-04-21T10:28:27.086Z,18.62
2017-04-21T10:29:27.041Z,18.8
2017-04-21T10:30:27.049Z,18.52
2017-04-21T10:31:27.053Z,18.52
2017-04-21T10:32:26.749Z,18.71
2017-04-21T10:33:27.064Z,18.62
2017-04-21T10:34:26.758Z,18.62
2017-04-21T10:35:26.771Z,18.9
2017-04-21T10:36:27.084Z,18.71
2017-04-21T10:37:27.141Z,18.62
2017-04-21T10:38:27.093Z,18.71
2017-04-21T10:39:27.103Z,19.29
2017-04-21T10:40:27.106Z,19.2
2017-04-21T10:41:27.160Z,19
2017-04-21T10:42:27.117Z,19.38
2017-04-21T10:43:27.170Z,19.29
2017-04-21T10:44:27.130Z,19
2017-04-21T10:45:27.133Z,19
2017-04-21T10:46:27.138Z,19
2017-04-21T10:47:27.144Z,19
2017-04-21T10:48:27.149Z,18.9
2017-04-21T10:49:27.158Z,19.18
2017-04-21T10:50:27.163Z,19.47
2017-04-21T10:51:27.167Z,19.67
2017-04-21T10:52:27.226Z,19.76
2017-04-21T10:53:27.230Z,19.76
2017-04-21T10:54:27.186Z,19.67
2017-04-21T10:55:27.242Z,19.76
2017-04-21T10:56:27.245Z,20.25
2017-04-21T10:57:27.202Z,20.05
2017-04-21T10:58:27.208Z,19.47
2017-04-21T10:59:27.212Z,19.57
2017-04-21T11:00:27.218Z,19.76
2017-04-21T11:01:27.276Z,19.95
2017-04-21T11:02:27.218Z,19.95
2017-04-21T11:03:27.246Z,19.95
2017-04-21T11:04:27.242Z,19.95
2017-04-21T11:05:27.297Z,19.76
2017-04-21T11:06:26.940Z,19.67
2017-04-21T11:07:27.309Z,20.05
2017-04-21T11:08:27.270Z,19.76
2017-04-21T11:09:26.957Z,19.67
2017-04-21T11:10:27.277Z,19.86
2017-04-21T11:11:27.420Z,19.67
2017-04-21T11:12:27.291Z,19.76
2017-04-21T11:13:27.297Z,19.86
2017-04-21T11:14:27.299Z,20.05
2017-04-21T11:15:27.305Z,20.05
2017-04-21T11:16:27.308Z,20.15
2017-04-21T11:17:27.005Z,19.95
2017-04-21T11:18:27.322Z,20.43
2017-04-21T11:19:27.328Z,20.53
2017-04-21T11:20:27.071Z,20.33
2017-04-21T11:21:27.339Z,20.43
2017-04-21T11:22:27.348Z,20.33
2017-04-21T11:23:27.352Z,20.23
2017-04-21T11:24:27.041Z,20.33
2017-04-21T11:25:27.411Z,20.62
2017-04-21T11:26:27.059Z,20.53
2017-04-21T11:27:27.377Z,20.62
2017-04-21T11:28:27.378Z,20.23
2017-04-21T11:29:27.383Z,20.23
2017-04-21T11:30:27.391Z,20.53
2017-04-21T11:31:27.394Z,20.72
2017-04-21T11:32:27.402Z,20.53
2017-04-21T11:33:27.408Z,20.72
2017-04-21T11:34:27.413Z,20.72
2017-04-21T11:35:27.419Z,20.53
2017-04-21T11:36:27.471Z,20.62
2017-04-21T11:37:29.280Z,20.53
2017-04-21T11:38:27.475Z,20.53
2017-04-21T11:39:27.438Z,20.62
2017-04-21T11:40:27.131Z,20.62
2017-04-21T11:41:27.501Z,20.53
2017-04-21T11:42:27.454Z,20.62
2017-04-21T11:43:27.464Z,20.62
2017-04-21T11:44:27.203Z,20.53
2017-04-21T11:45:27.160Z,20.53
2017-04-21T11:46:27.480Z,20.33
2017-04-21T11:47:27.483Z,20.62
2017-04-21T11:48:27.493Z,20.43
2017-04-21T11:49:27.183Z,20.43
2017-04-21T11:50:27.503Z,20.53
2017-04-21T11:51:27.508Z,20.33
2017-04-21T11:52:27.516Z,20.72
2017-04-21T11:53:27.567Z,20.72
2017-04-21T11:54:27.527Z,20.81
2017-04-21T11:55:27.529Z,20.91
2017-04-21T11:56:27.533Z,20.91
2017-04-21T11:57:27.588Z,21.01
2017-04-21T11:58:27.545Z,21.2
2017-04-21T11:59:27.554Z,20.91
2017-04-21T12:00:27.607Z,21.01
2017-04-21T12:01:27.561Z,20.62
2017-04-21T12:02:27.616Z,20.81
2017-04-21T12:03:27.622Z,21.1
2017-04-21T12:04:27.579Z,20.81
2017-04-21T12:05:27.633Z,21.01
2017-04-21T12:06:27.591Z,21.01
2017-04-21T12:07:27.901Z,21.01
2017-04-21T12:08:27.601Z,21.1
2017-04-21T12:09:27.606Z,20.91
2017-04-21T12:10:27.672Z,20.91
2017-04-21T12:11:27.619Z,21.1
2017-04-21T12:12:27.310Z,20.91
2017-04-21T12:13:27.630Z,20.91
2017-04-21T12:14:27.636Z,20.91
2017-04-21T12:15:27.691Z,20.62
2017-04-21T12:16:27.330Z,20.91
2017-04-21T12:17:27.648Z,20.91
2017-04-21T12:18:27.704Z,20.91
2017-04-21T12:19:27.346Z,20.91
2017-04-21T12:20:27.665Z,21.01
2017-04-21T12:21:27.723Z,20.81
2017-04-21T12:22:27.774Z,20.91
2017-04-21T12:23:27.732Z,20.81
2017-04-21T12:24:27.690Z,20.72
2017-04-21T12:25:27.744Z,20.81
2017-04-21T12:26:27.751Z,20.72
2017-04-21T12:27:27.704Z,20.72
2017-04-21T12:28:29.860Z,20.62
2017-04-21T12:29:27.714Z,20.81
2017-04-21T12:30:27.723Z,20.62
2017-04-21T12:31:27.728Z,20.91
2017-04-21T12:32:27.785Z,20.72
2017-04-21T12:33:27.728Z,20.72
2017-04-21T12:34:27.745Z,20.72
2017-04-21T12:35:27.753Z,20.63
2017-04-21T12:36:27.757Z,20.72
2017-04-21T12:37:27.810Z,20.72
2017-04-21T12:38:28.765Z,20.73
2017-04-21T12:39:27.774Z,20.73
2017-04-21T12:40:27.465Z,20.81
2017-04-21T12:41:27.832Z,20.72
2017-04-21T12:42:27.786Z,20.83
2017-04-21T12:43:27.795Z,20.83
2017-04-21T12:44:27.797Z,20.83
2017-04-21T12:45:27.803Z,20.92
2017-04-21T12:46:27.548Z,20.83
2017-04-21T12:47:27.507Z,20.92
2017-04-21T12:48:27.871Z,20.92
2017-04-21T12:49:27.563Z,20.92
2017-04-21T12:50:27.521Z,20.83
2017-04-21T12:51:27.839Z,20.83
2017-04-21T12:52:27.844Z,20.73
2017-04-21T12:53:27.853Z,20.73
2017-04-21T12:54:27.904Z,20.73
2017-04-21T12:55:27.599Z,20.73
2017-04-21T12:56:27.866Z,20.92
2017-04-21T12:57:27.608Z,21.01
2017-04-21T12:58:27.880Z,21.01
2017-04-21T12:59:27.885Z,20.83
2017-04-21T13:00:27.578Z,20.92
2017-04-21T13:01:27.595Z,20.83
2017-04-21T13:02:27.600Z,20.83
2017-04-21T13:03:27.908Z,20.63
2017-04-21T13:04:27.910Z,21.11
2017-04-21T13:05:27.966Z,21.11
2017-04-21T13:06:27.927Z,21.4
2017-04-21T13:07:27.929Z,21.21
2017-04-21T13:08:27.620Z,21.5
2017-04-21T13:09:27.990Z,21.59
2017-04-21T13:10:27.942Z,21.4
2017-04-21T13:11:27.948Z,21.31
2017-04-21T13:12:27.955Z,21.31
2017-04-21T13:13:27.646Z,21.21
2017-04-21T13:14:27.717Z,21.31
2017-04-21T13:15:27.975Z,21.59
2017-04-21T13:16:27.977Z,21.69
2017-04-21T13:17:28.034Z,21.69
2017-04-21T13:18:27.989Z,21.59